This is the latest recevied weather packets stored in our database for station/object SQ7IQO. If no packets are shown the sender has not sent any weather packets the latest 10 day(s).
| Time | Temp. | Humidity | Pressure | Rain* | Wind** | Luminosity | Snow |
|---|---|---|---|---|---|---|---|
| 1787813859 | 20.56° C | 59% | 1123.3 hPa | 0 mm | 0 m/s | - | - |
| 1787813799 | 20° C | 60% | 1024.5 hPa | 0 mm | 0 m/s | - | - |
| 1787813739 | 20° C | 60% | 1024.5 hPa | 0 mm | 0 m/s | - | - |
| 1787813679 | 20.56° C | 58% | 1024.6 hPa | 0 mm | 0 m/s | - | - |
| 1787813619 | 20.56° C | 59% | 1024.5 hPa | 0 mm | 0 m/s | - | - |
| 1787813559 | 20° C | 60% | 1024.5 hPa | 0 mm | 0 m/s | - | - |
| 1787813499 | 20° C | 61% | 1024.5 hPa | 0 mm | 0 m/s | - | - |
| 1787813439 | 20° C | 62% | 1024.5 hPa | 0 mm | 0 m/s | - | - |
| 1787813379 | 18.89° C | 63% | - | 0 mm | 0 m/s | - | - |
| 1787813319 | 18.89° C | 65% | 1024.4 hPa | 0 mm | 0 m/s | - | - |
| 1787813259 | 18.33° C | 64% | - | 0 mm | 0 m/s | - | - |
| 1787813199 | 18.89° C | 63% | 1024.5 hPa | 0 mm | 0.45 m/s, ° | - | - |
| 1787813139 | 18.89° C | 62% | 1024.4 hPa | 0 mm | 0.45 m/s, ° | - | - |
| 1787813079 | 18.89° C | 64% | 1024.4 hPa | 0 mm | 0 m/s | - | - |
| 1787813019 | 18.89° C | 64% | 1024.4 hPa | 0 mm | 0 m/s | - | - |
| 1787812959 | 18.89° C | 64% | 1024.4 hPa | 0 mm | 0 m/s | - | - |
| 1787812899 | 18.89° C | 63% | 1024.4 hPa | 0 mm | 0 m/s | - | - |
| 1787812839 | 18.89° C | 63% | 1024.4 hPa | 0 mm | 0.45 m/s, ° | - | - |
| 1787812779 | 20° C | 60% | 1024.4 hPa | 0 mm | 0.89 m/s, ° | - | - |
| 1787812719 | 20° C | 60% | 1024.4 hPa | 0 mm | 0 m/s | - | - |
| 1787812659 | 20° C | 61% | 1024.4 hPa | 0 mm | 0 m/s | - | - |
| 1787812599 | 19.44° C | 63% | 1024.4 hPa | 0 mm | 0 m/s | - | - |
| 1787812540 | 19.44° C | 63% | 1024.4 hPa | 0 mm | 0 m/s | - | - |
| 1787812479 | 18.89° C | 64% | 1024.4 hPa | 0 mm | 0 m/s | - | - |
| 1787812419 | 18.89° C | 62% | 1024.4 hPa | 0 mm | 0 m/s | - | - |
* Rain latest hour (hover to see other rain measurements)
** Current wind speed in m/s (hover to see current wind gust speed)